LFRV/VNE METAR and TAF weather

Enter ICAO airport designator
Station Type Date Time Source
LFRV METAR 2019/12/09 22:00 UTC NOAA

LFRV 092200Z AUTO 31004KT CAVOK 04/03 Q1028


Station Type Date Time Source
LFRV Decoded METAR 2019/12/09 22:00 UTC NOAA

Station name not available
Dec 09, 2019 - 05:00 PM EST / 2019.12.09 2200 UTC
Wind: from the NW (310 degrees) at 5 MPH (4 KT):0
Visibility: greater than 7 mile(s):0
Temperature: 39 F (4 C)
Dew Point: 37 F (3 C)
Relative Humidity: 93%
Pressure (altimeter): 30.36 in. Hg (1028 hPa)
ob: LFRV 092200Z AUTO 31004KT CAVOK 04/03 Q1028
cycle: 22

Station Type Date Time Source
LFRV TAF UTC NOAA

Error!

Example: see airport list